createdAt,value
2016-12-12T00:00:20.779Z,10.61
2016-12-12T00:01:30.830Z,10.63
2016-12-12T00:02:40.858Z,10.63
2016-12-12T00:03:50.916Z,10.61
2016-12-12T00:05:00.948Z,10.54
2016-12-12T00:06:11.320Z,10.59
2016-12-12T00:07:21.339Z,10.59
2016-12-12T00:08:31.356Z,10.49
2016-12-12T00:09:41.380Z,10.52
2016-12-12T00:10:51.714Z,10.51
2016-12-12T00:12:02.070Z,10.55
2016-12-12T00:13:12.101Z,10.55
2016-12-12T00:14:22.424Z,10.51
2016-12-12T00:15:32.817Z,10.51
2016-12-12T00:16:43.148Z,10.44
2016-12-12T00:17:53.485Z,10.44
2016-12-12T00:19:03.823Z,10.38
2016-12-12T00:20:14.163Z,10.38
2016-12-12T00:21:24.510Z,10.46
2016-12-12T00:22:34.838Z,10.44
2016-12-12T00:23:45.210Z,10.52
2016-12-12T00:24:55.231Z,10.58
2016-12-12T00:26:04.939Z,10.49
2016-12-12T00:27:15.273Z,10.51
2016-12-12T00:28:25.631Z,10.52
2016-12-12T00:29:35.963Z,10.52
2016-12-12T00:30:45.978Z,10.54
2016-12-12T00:31:55.993Z,10.61
2016-12-12T00:33:05.705Z,10.61
2016-12-12T00:34:15.409Z,10.51
2016-12-12T00:35:25.432Z,10.65
2016-12-12T00:36:35.448Z,10.7
2016-12-12T00:37:45.169Z,10.59
2016-12-12T00:38:55.180Z,10.69
2016-12-12T00:40:05.213Z,10.66
2016-12-12T00:41:15.554Z,10.66
2016-12-12T00:42:25.249Z,10.69
2016-12-12T00:43:34.946Z,10.72
2016-12-12T00:44:45.279Z,10.7
2016-12-12T00:45:54.986Z,10.58
2016-12-12T00:47:04.703Z,10.72
2016-12-12T00:48:14.726Z,10.77
2016-12-12T00:49:24.743Z,10.76
2016-12-12T00:50:35.069Z,10.77
2016-12-12T00:51:44.785Z,10.77
2016-12-12T00:52:55.152Z,10.76
2016-12-12T00:54:05.183Z,10.79
2016-12-12T00:55:15.221Z,10.72
2016-12-12T00:56:25.263Z,10.77
2016-12-12T00:57:35.632Z,10.8
2016-12-12T00:58:45.334Z,10.84
2016-12-12T00:59:55.379Z,10.83
2016-12-12T01:01:05.399Z,10.91
2016-12-12T01:02:15.436Z,10.84
2016-12-12T01:03:25.764Z,10.85
2016-12-12T01:04:36.104Z,10.75
2016-12-12T01:05:46.446Z,10.8
2016-12-12T01:06:56.798Z,10.79
2016-12-12T01:08:06.508Z,10.73
2016-12-12T01:09:16.528Z,10.76
2016-12-12T01:10:26.859Z,10.79
2016-12-12T01:11:37.189Z,10.79
2016-12-12T01:12:47.198Z,10.8
2016-12-12T01:13:56.907Z,10.79
2016-12-12T01:15:06.917Z,10.76
2016-12-12T01:16:16.633Z,10.77
2016-12-12T01:17:26.339Z,10.76
2016-12-12T01:18:36.046Z,10.85
2016-12-12T01:19:46.063Z,10.8
2016-12-12T01:20:56.436Z,10.79
2016-12-12T01:22:06.757Z,10.77
2016-12-12T01:23:17.084Z,10.77
2016-12-12T01:24:27.412Z,10.83
2016-12-12T01:25:37.131Z,10.84
2016-12-12T01:26:47.152Z,10.83
2016-12-12T01:27:56.851Z,10.83
2016-12-12T01:29:07.187Z,10.8
2016-12-12T01:30:17.524Z,10.79
2016-12-12T01:31:27.617Z,10.77
2016-12-12T01:32:37.641Z,10.8
2016-12-12T01:33:47.978Z,10.79
2016-12-12T01:34:57.997Z,10.75
2016-12-12T01:36:07.704Z,10.75
2016-12-12T01:37:17.723Z,10.85
2016-12-12T01:38:28.060Z,10.75
2016-12-12T01:39:38.072Z,10.76
2016-12-12T01:40:48.093Z,10.7
2016-12-12T01:41:57.821Z,10.79
2016-12-12T01:43:08.142Z,10.73
2016-12-12T01:44:17.537Z,10.76
2016-12-12T01:45:27.547Z,10.79
2016-12-12T01:46:37.866Z,10.75
2016-12-12T01:47:48.193Z,10.73
2016-12-12T01:48:58.211Z,10.76
2016-12-12T01:50:08.244Z,10.76
2016-12-12T01:51:18.260Z,10.61
2016-12-12T01:52:28.594Z,10.7
2016-12-12T01:53:38.616Z,10.76
2016-12-12T01:54:48.703Z,10.72
2016-12-12T01:55:59.027Z,10.79
2016-12-12T01:57:09.362Z,10.8
2016-12-12T01:58:19.699Z,10.76
2016-12-12T01:59:29.406Z,10.87
2016-12-12T02:00:39.428Z,10.75
2016-12-12T02:01:49.462Z,10.84
2016-12-12T02:02:59.176Z,10.76
2016-12-12T02:04:09.193Z,10.75
2016-12-12T02:05:19.524Z,10.77
2016-12-12T02:06:29.855Z,10.8
2016-12-12T02:07:40.198Z,10.83
2016-12-12T02:08:50.209Z,10.77
2016-12-12T02:10:00.256Z,10.83
2016-12-12T02:11:10.593Z,10.77
2016-12-12T02:12:20.607Z,10.77
2016-12-12T02:13:30.978Z,10.73
2016-12-12T02:14:41.003Z,10.77
2016-12-12T02:15:51.016Z,10.59
2016-12-12T02:17:01.083Z,10.73
2016-12-12T02:18:11.413Z,10.73
2016-12-12T02:19:21.446Z,10.66
2016-12-12T02:20:31.778Z,10.72
2016-12-12T02:21:42.110Z,10.65
2016-12-12T02:22:52.456Z,10.69
2016-12-12T02:24:02.797Z,10.66
2016-12-12T02:25:12.530Z,10.69
2016-12-12T02:26:22.538Z,10.66
2016-12-12T02:27:32.878Z,10.59
2016-12-12T02:28:43.206Z,10.57
2016-12-12T02:29:53.217Z,10.58
2016-12-12T02:31:03.550Z,10.57
2016-12-12T02:32:13.568Z,10.63
2016-12-12T02:33:23.586Z,10.51
2016-12-12T02:34:33.286Z,10.52
2016-12-12T02:35:43.605Z,10.51
2016-12-12T02:36:53.943Z,10.58
2016-12-12T02:38:04.274Z,10.54
2016-12-12T02:39:14.300Z,10.46
2016-12-12T02:40:24.000Z,10.52
2016-12-12T02:41:34.053Z,10.41
2016-12-12T02:42:43.786Z,10.51
2016-12-12T02:43:54.124Z,10.39
2016-12-12T02:45:04.147Z,10.38
2016-12-12T02:46:14.160Z,10.41
2016-12-12T02:47:24.182Z,10.36
2016-12-12T02:48:34.539Z,10.44
2016-12-12T02:49:43.925Z,10.41
2016-12-12T02:50:53.626Z,10.42
2016-12-12T02:52:03.952Z,10.35
2016-12-12T02:53:13.349Z,10.36
2016-12-12T02:54:23.672Z,10.46
2016-12-12T02:55:33.993Z,10.42
2016-12-12T02:56:44.305Z,10.32
2016-12-12T02:57:54.642Z,10.28
2016-12-12T02:59:04.673Z,10.31
2016-12-12T03:00:14.692Z,10.23
2016-12-12T03:01:25.026Z,10.31
2016-12-12T03:33:19.402Z,7.47
2016-12-12T03:34:29.092Z,7.44
2016-12-12T03:35:39.126Z,7.36
2016-12-12T03:36:49.449Z,7.39
2016-12-12T03:37:59.769Z,7.47
2016-12-12T03:39:09.786Z,7.59
2016-12-12T03:40:20.111Z,7.74
2016-12-12T03:41:30.430Z,7.91
2016-12-12T03:42:40.776Z,8.07
2016-12-12T03:43:50.517Z,8.11
2016-12-12T03:45:00.579Z,8.26
2016-12-12T03:46:10.606Z,8.49
2016-12-12T03:47:20.962Z,8.49
2016-12-12T03:48:31.290Z,8.6
2016-12-12T03:49:41.656Z,8.69
2016-12-12T03:50:50.738Z,8.79
2016-12-12T03:52:00.760Z,8.94
2016-12-12T03:53:10.771Z,9.05
2016-12-12T03:54:21.105Z,9
2016-12-12T03:55:31.445Z,9.14
2016-12-12T03:56:41.461Z,9.2
2016-12-12T03:57:51.802Z,9.2
2016-12-12T03:59:01.822Z,9.29
2016-12-12T04:00:12.144Z,9.24
2016-12-12T04:01:22.167Z,9.24
2016-12-12T04:02:31.883Z,9.26
2016-12-12T04:03:42.220Z,9.32
2016-12-12T04:04:52.576Z,9.42
2016-12-12T04:06:02.344Z,9.41
2016-12-12T04:07:12.668Z,9.45
2016-12-12T04:08:22.362Z,9.45
2016-12-12T04:09:32.690Z,9.48
2016-12-12T04:10:43.021Z,9.55
2016-12-12T04:11:53.396Z,9.59
2016-12-12T04:13:03.125Z,9.6
2016-12-12T04:14:13.222Z,9.57
2016-12-12T04:15:23.589Z,9.57
2016-12-12T04:16:33.945Z,9.59
2016-12-12T04:17:43.948Z,9.55
2016-12-12T04:18:53.963Z,9.59
2016-12-12T04:20:03.981Z,9.55
2016-12-12T04:21:14.010Z,9.55
2016-12-12T04:22:23.709Z,9.59
2016-12-12T04:23:34.045Z,9.66
2016-12-12T04:24:44.375Z,9.55
2016-12-12T04:25:54.392Z,9.64
2016-12-12T04:27:04.445Z,9.66
2016-12-12T04:28:14.761Z,9.63
2016-12-12T04:29:24.768Z,9.64
2016-12-12T04:30:34.808Z,9.62
2016-12-12T04:31:44.810Z,9.64
2016-12-12T04:32:54.816Z,9.67
2016-12-12T04:34:05.171Z,9.64
2016-12-12T04:35:15.512Z,9.66
2016-12-12T04:36:25.836Z,9.63
2016-12-12T04:37:35.840Z,9.6
2016-12-12T04:38:46.180Z,9.64
2016-12-12T04:39:56.510Z,9.62
2016-12-12T04:41:06.848Z,9.72
2016-12-12T04:42:17.171Z,9.75
2016-12-12T04:43:27.240Z,9.71
2016-12-12T04:44:36.950Z,9.64
2016-12-12T04:45:47.281Z,9.63
2016-12-12T04:46:57.295Z,9.63
2016-12-12T04:48:07.623Z,9.52
2016-12-12T04:49:17.352Z,9.6
2016-12-12T04:50:27.685Z,9.55
2016-12-12T04:51:37.698Z,9.59
2016-12-12T04:52:47.408Z,9.48
2016-12-12T04:53:57.415Z,9.5
2016-12-12T04:55:07.779Z,9.59
2016-12-12T04:56:18.114Z,9.53
2016-12-12T04:57:28.445Z,9.53
2016-12-12T04:58:38.465Z,9.55
2016-12-12T04:59:48.486Z,9.62
2016-12-12T05:00:58.503Z,9.62
2016-12-12T05:02:08.841Z,9.62
2016-12-12T05:03:19.229Z,9.67
2016-12-12T05:04:29.637Z,9.64
2016-12-12T05:05:39.660Z,9.64
2016-12-12T05:06:49.982Z,9.67
2016-12-12T05:08:00.300Z,9.64
2016-12-12T05:09:10.326Z,9.67
2016-12-12T05:10:20.648Z,9.77
2016-12-12T05:11:30.975Z,9.75
2016-12-12T05:12:41.340Z,9.74
2016-12-12T05:13:51.379Z,9.8
2016-12-12T05:15:01.745Z,9.72
2016-12-12T05:16:12.057Z,9.74
2016-12-12T05:17:22.388Z,9.7
2016-12-12T05:18:32.715Z,9.77
2016-12-12T05:19:43.070Z,9.74
2016-12-12T05:20:53.427Z,9.77
2016-12-12T05:22:03.443Z,9.8
2016-12-12T05:23:13.461Z,9.77
2016-12-12T05:24:23.790Z,9.75
2016-12-12T05:25:34.160Z,9.82
2016-12-12T05:26:44.486Z,9.75
2016-12-12T05:27:54.507Z,9.7
2016-12-12T05:29:04.519Z,9.75
2016-12-12T05:30:14.527Z,9.66
2016-12-12T05:31:24.860Z,9.7
2016-12-12T05:32:34.575Z,9.56
2016-12-12T05:33:44.275Z,9.56
2016-12-12T05:34:54.325Z,9.57
2016-12-12T05:36:04.647Z,9.47
2016-12-12T05:37:14.983Z,9.53
2016-12-12T05:38:25.010Z,9.47
2016-12-12T05:39:35.342Z,9.48
2016-12-12T05:40:45.677Z,9.41
2016-12-12T05:41:56.009Z,9.45
2016-12-12T05:43:06.017Z,9.41
2016-12-12T05:44:16.347Z,9.38
2016-12-12T05:45:26.365Z,9.45
2016-12-12T05:46:36.401Z,9.45
2016-12-12T05:47:46.763Z,9.44
2016-12-12T05:48:57.106Z,9.48
2016-12-12T05:50:07.131Z,9.63
2016-12-12T05:51:17.148Z,9.56
2016-12-12T05:52:26.840Z,9.64
2016-12-12T05:53:37.168Z,9.63
2016-12-12T05:54:46.868Z,9.77
2016-12-12T05:55:56.885Z,9.78
2016-12-12T05:57:07.230Z,9.89
2016-12-12T05:58:17.574Z,9.82
2016-12-12T05:59:27.956Z,9.82
2016-12-12T06:00:38.297Z,9.84
2016-12-12T06:01:48.309Z,9.84
2016-12-12T06:02:58.316Z,9.82
2016-12-12T06:04:08.052Z,9.85
2016-12-12T06:05:18.075Z,9.99
2016-12-12T06:06:28.421Z,9.96
2016-12-12T06:07:38.469Z,9.98
2016-12-12T06:08:48.815Z,9.93
2016-12-12T06:09:59.146Z,10.02
2016-12-12T06:11:09.172Z,10.02
2016-12-12T06:12:18.869Z,10.07
2016-12-12T06:13:28.887Z,10.1
2016-12-12T06:14:39.234Z,10.11
2016-12-12T06:15:48.949Z,10.14
2016-12-12T06:16:59.041Z,10.15
2016-12-12T06:18:09.083Z,10.13
2016-12-12T06:19:19.407Z,10.14
2016-12-12T06:20:29.427Z,10.17
2016-12-12T06:21:39.443Z,10.14
2016-12-12T06:22:49.460Z,10.18
2016-12-12T06:23:59.788Z,10.13
2016-12-12T06:25:09.503Z,10.2
2016-12-12T06:26:19.830Z,10.2
2016-12-12T06:27:30.153Z,10.13
2016-12-12T06:28:40.483Z,10.18
2016-12-12T06:29:50.191Z,10.23
2016-12-12T06:31:00.527Z,10.26
2016-12-12T06:32:10.581Z,10.29
2016-12-12T06:33:20.896Z,10.21
2016-12-12T06:34:30.913Z,10.23
2016-12-12T06:35:40.929Z,10.28
2016-12-12T06:36:51.286Z,10.21
2016-12-12T06:38:01.621Z,10.32
2016-12-12T06:39:11.959Z,10.25
2016-12-12T06:40:22.290Z,10.25
2016-12-12T06:41:32.612Z,10.2
2016-12-12T06:42:42.019Z,10.21
2016-12-12T06:43:52.353Z,10.14
2016-12-12T06:45:02.683Z,10.21
2016-12-12T06:46:13.019Z,10.28
2016-12-12T06:47:23.356Z,10.21
2016-12-12T06:48:33.378Z,10.2
2016-12-12T06:49:43.744Z,10.21
2016-12-12T06:50:53.751Z,10.2
2016-12-12T06:52:03.143Z,10.21
2016-12-12T06:53:13.174Z,10.29
2016-12-12T06:54:23.506Z,10.23
2016-12-12T06:55:33.237Z,10.26
2016-12-12T06:56:43.578Z,10.32
2016-12-12T06:57:53.911Z,10.39
2016-12-12T06:59:04.247Z,10.36
2016-12-12T07:00:13.639Z,10.42
2016-12-12T07:01:23.655Z,10.42
2016-12-12T07:02:33.923Z,10.52
2016-12-12T07:03:44.270Z,10.58
2016-12-12T07:04:53.991Z,10.61
2016-12-12T07:06:04.018Z,10.57
2016-12-12T07:07:14.350Z,10.55
2016-12-12T07:08:24.716Z,10.58
2016-12-12T07:09:35.078Z,10.61
2016-12-12T07:10:45.026Z,10.63
2016-12-12T07:11:55.391Z,10.58
2016-12-12T07:13:05.428Z,10.63
2016-12-12T07:14:15.765Z,10.47
2016-12-12T07:15:25.786Z,10.52
2016-12-12T07:16:35.807Z,10.52
2016-12-12T07:17:46.139Z,10.47
2016-12-12T07:18:55.862Z,10.58
2016-12-12T07:20:05.888Z,10.51
2016-12-12T07:21:16.210Z,10.49
2016-12-12T07:22:26.547Z,10.51
2016-12-12T07:23:36.882Z,10.52
2016-12-12T07:24:47.220Z,10.58
2016-12-12T07:25:57.547Z,10.47
2016-12-12T07:27:07.579Z,10.35
2016-12-12T07:28:17.927Z,10.44
2016-12-12T07:29:27.942Z,10.39
2016-12-12T07:30:37.979Z,10.44
2016-12-12T07:31:48.000Z,10.33
2016-12-12T07:32:58.333Z,10.35
2016-12-12T07:34:08.348Z,10.33
2016-12-12T07:35:18.706Z,10.36
2016-12-12T07:36:29.035Z,10.35
2016-12-12T07:37:39.068Z,10.36
2016-12-12T07:38:49.096Z,10.35
2016-12-12T07:39:59.433Z,10.35
2016-12-12T07:41:09.445Z,10.44
2016-12-12T07:42:19.767Z,10.47
2016-12-12T07:43:29.782Z,10.46
2016-12-12T07:44:39.799Z,10.46
2016-12-12T07:45:49.862Z,10.44
2016-12-12T07:47:00.194Z,10.47
2016-12-12T07:48:10.530Z,10.49
2016-12-12T07:49:20.544Z,10.54
2016-12-12T07:50:30.928Z,10.63
2016-12-12T07:51:41.263Z,10.66
2016-12-12T07:52:51.010Z,10.63
2016-12-12T07:54:01.028Z,10.7
2016-12-12T07:55:11.366Z,10.7
2016-12-12T07:56:21.397Z,10.75
2016-12-12T07:57:31.739Z,10.75
2016-12-12T07:58:41.766Z,10.79
2016-12-12T07:59:51.788Z,10.8
2016-12-12T08:01:01.536Z,10.87
2016-12-12T08:02:11.877Z,10.9
2016-12-12T08:03:22.218Z,10.9
2016-12-12T08:04:31.929Z,10.95
2016-12-12T08:05:41.977Z,10.97
2016-12-12T08:06:52.309Z,11.06
2016-12-12T08:08:02.644Z,11.09
2016-12-12T08:09:12.677Z,11.09
2016-12-12T08:10:22.693Z,11.18
2016-12-12T08:11:32.414Z,11.18
2016-12-12T08:12:42.742Z,11.23
2016-12-12T08:13:53.129Z,11.26
2016-12-12T08:15:03.140Z,11.27
2016-12-12T08:16:13.476Z,11.08
2016-12-12T08:17:22.868Z,10.97
2016-12-12T08:18:33.192Z,10.97
2016-12-12T08:19:42.894Z,10.87
2016-12-12T08:20:53.235Z,10.85
2016-12-12T08:22:03.241Z,10.79
2016-12-12T08:23:12.948Z,10.84
2016-12-12T08:24:22.663Z,10.92
2016-12-12T08:25:32.104Z,10.97
2016-12-12T08:26:42.451Z,10.94
2016-12-12T08:27:52.154Z,10.95
2016-12-12T08:29:02.161Z,10.84
2016-12-12T08:30:12.176Z,10.94
2016-12-12T08:31:22.509Z,11.05
2016-12-12T08:32:32.524Z,11.18
2016-12-12T08:33:42.871Z,11.3
2016-12-12T08:34:53.199Z,11.42
2016-12-12T08:36:03.532Z,11.38
2016-12-12T08:37:13.868Z,11.41
2016-12-12T08:38:23.894Z,11.41
2016-12-12T08:39:34.223Z,11.3
2016-12-12T08:40:44.243Z,11.23
2016-12-12T08:41:54.605Z,11.26
2016-12-12T08:43:04.629Z,11.24
2016-12-12T08:44:14.657Z,11.18
2016-12-12T08:45:24.679Z,11.2
2016-12-12T08:46:35.007Z,11.28
2016-12-12T08:47:45.328Z,11.33
2016-12-12T08:48:55.664Z,11.38
2016-12-12T08:50:05.996Z,11.2
2016-12-12T08:51:16.346Z,11.05
2016-12-12T08:52:26.671Z,10.87
2016-12-12T08:53:36.683Z,10.7
2016-12-12T08:54:46.724Z,10.39
2016-12-12T08:55:57.107Z,10.33
2016-12-12T08:57:07.121Z,10.26
2016-12-12T08:58:17.153Z,10.21
2016-12-12T08:59:27.168Z,10.21
2016-12-12T09:00:37.506Z,10.17
2016-12-12T09:01:47.831Z,10.2
2016-12-12T09:02:57.849Z,10.1
2016-12-12T09:04:07.558Z,9.95
2016-12-12T09:05:17.579Z,9.8
2016-12-12T09:06:27.605Z,9.85
2016-12-12T09:07:37.316Z,9.82
2016-12-12T09:08:47.030Z,9.71
2016-12-12T09:09:57.356Z,9.84
2016-12-12T09:11:07.416Z,9.82
2016-12-12T09:12:17.473Z,9.75
2016-12-12T09:13:27.494Z,9.85
2016-12-12T09:14:37.502Z,9.85
2016-12-12T09:15:47.844Z,9.92
2016-12-12T09:16:57.869Z,10.02
2016-12-12T09:18:08.198Z,10.07
2016-12-12T09:19:18.529Z,10.26
2016-12-12T09:20:28.554Z,10.29
2016-12-12T09:21:38.892Z,10.26
2016-12-12T09:22:48.596Z,10.33
2016-12-12T09:23:58.935Z,10.21
2016-12-12T09:25:08.947Z,10.07
2016-12-12T09:26:18.958Z,9.96
2016-12-12T09:27:28.982Z,9.84
2016-12-12T09:28:39.327Z,9.77
2016-12-12T09:29:49.691Z,9.78
2016-12-12T09:30:59.705Z,9.8
2016-12-12T09:32:09.418Z,9.85
2016-12-12T09:33:19.443Z,9.82
2016-12-12T09:34:29.152Z,9.84
2016-12-12T09:35:39.207Z,9.84
2016-12-12T09:36:49.220Z,9.95
2016-12-12T09:37:59.231Z,10.05
2016-12-12T09:39:09.274Z,9.98
2016-12-12T09:40:18.975Z,10.02
2016-12-12T09:41:28.988Z,9.98
2016-12-12T09:42:39.313Z,9.88
2016-12-12T09:43:49.326Z,9.82
2016-12-12T09:44:59.652Z,9.88
2016-12-12T09:46:09.367Z,9.81
2016-12-12T09:47:19.709Z,9.81
2016-12-12T09:48:29.717Z,9.89
2016-12-12T09:49:40.053Z,9.92
2016-12-12T09:50:50.391Z,10.03
2016-12-12T09:52:00.453Z,10.15
2016-12-12T09:53:10.854Z,10.15
2016-12-12T09:54:20.865Z,10.28
2016-12-12T09:55:30.876Z,10.21
2016-12-12T09:56:40.576Z,10.29
2016-12-12T09:57:50.592Z,10.36
2016-12-12T09:59:00.939Z,10.51
2016-12-12T10:00:11.273Z,10.63
2016-12-12T10:01:20.978Z,10.65
2016-12-12T10:02:31.297Z,10.63
2016-12-12T10:03:41.033Z,10.69
2016-12-12T10:04:50.742Z,10.66
2016-12-12T10:06:00.758Z,10.66
2016-12-12T10:07:11.088Z,10.65
2016-12-12T10:08:21.109Z,10.66
2016-12-12T10:09:31.437Z,10.8
2016-12-12T10:10:41.468Z,10.91
2016-12-12T10:11:51.501Z,10.95
2016-12-12T10:13:01.846Z,10.92
2016-12-12T10:14:12.192Z,11.05
2016-12-12T10:15:22.524Z,11.15
2016-12-12T10:16:32.287Z,11.31
2016-12-12T10:17:42.613Z,11.39
2016-12-12T10:18:52.645Z,11.34
2016-12-12T10:20:02.667Z,11.31
2016-12-12T10:21:12.689Z,11.42
2016-12-12T10:22:22.700Z,11.45
2016-12-12T10:23:32.426Z,11.43
2016-12-12T10:24:42.433Z,11.41
2016-12-12T10:25:52.764Z,11.35
2016-12-12T10:27:03.101Z,11.41
2016-12-12T10:28:12.808Z,11.43
2016-12-12T10:29:22.212Z,11.38
2016-12-12T10:30:32.232Z,11.39
2016-12-12T10:31:42.574Z,11.28
2016-12-12T10:32:52.605Z,11.41
2016-12-12T10:34:02.623Z,11.59
2016-12-12T10:35:12.652Z,11.64
2016-12-12T10:36:22.962Z,11.78
2016-12-12T10:37:33.292Z,11.76
2016-12-12T10:38:42.998Z,11.79
2016-12-12T10:39:53.345Z,11.7
2016-12-12T10:41:03.047Z,11.68
2016-12-12T10:42:13.399Z,11.66
2016-12-12T10:43:23.105Z,11.79
2016-12-12T10:44:33.438Z,11.78
2016-12-12T10:45:43.473Z,11.79
2016-12-12T10:46:53.505Z,11.68
2016-12-12T10:48:03.522Z,11.67
2016-12-12T10:49:13.863Z,11.52
2016-12-12T10:50:24.190Z,11.52
2016-12-12T10:51:34.193Z,11.63
2016-12-12T10:52:44.523Z,11.73
2016-12-12T10:53:54.857Z,11.66
2016-12-12T10:55:05.197Z,11.78
2016-12-12T10:56:15.247Z,11.89
2016-12-12T10:57:25.486Z,11.91
2016-12-12T10:58:35.205Z,11.91
2016-12-12T10:59:44.906Z,11.91
2016-12-12T11:00:54.926Z,11.98
2016-12-12T11:02:05.282Z,12.11
2016-12-12T11:03:15.315Z,12.13
2016-12-12T11:04:25.360Z,12.2
2016-12-12T11:05:35.368Z,12.25
2016-12-12T11:06:45.081Z,12.18
2016-12-12T11:07:54.775Z,12.34
2016-12-12T11:09:04.787Z,12.2
2016-12-12T11:10:14.809Z,12.13
2016-12-12T11:11:24.830Z,12.04
2016-12-12T11:12:35.180Z,12.04
2016-12-12T11:13:45.510Z,12.15
2016-12-12T11:14:55.208Z,12.22
2016-12-12T11:16:05.548Z,12.38
2016-12-12T11:17:15.880Z,12.33
2016-12-12T11:18:26.213Z,12.38
2016-12-12T11:19:36.538Z,12.29
2016-12-12T11:20:46.244Z,12.43
2016-12-12T11:21:56.590Z,12.61
2016-12-12T11:23:06.604Z,12.51
2016-12-12T11:24:16.351Z,12.55
2016-12-12T11:25:26.388Z,12.44
2016-12-12T11:26:50.672Z,12.41
2016-12-12T11:28:01.019Z,12.51
2016-12-12T11:29:10.419Z,12.36
2016-12-12T11:30:20.764Z,12.34
2016-12-12T11:31:30.814Z,12.31
2016-12-12T11:32:41.187Z,12.29
2016-12-12T11:33:51.539Z,12.25
2016-12-12T11:35:01.579Z,12.22
2016-12-12T11:36:11.908Z,12.2
2016-12-12T11:37:21.937Z,12.19
2016-12-12T11:38:31.964Z,12.03
2016-12-12T11:39:42.286Z,12.04
2016-12-12T11:40:52.622Z,11.91
2016-12-12T11:42:02.961Z,11.95
2016-12-12T11:43:13.291Z,11.88
2016-12-12T11:44:23.612Z,12.01
2016-12-12T11:45:33.940Z,11.98
2016-12-12T11:46:43.647Z,11.98
2016-12-12T11:47:53.662Z,12.07
2016-12-12T11:49:04.016Z,11.98
2016-12-12T11:50:14.042Z,11.98
2016-12-12T11:51:24.073Z,12
2016-12-12T11:52:34.419Z,12.08
2016-12-12T11:53:44.120Z,12.16
2016-12-12T11:54:54.448Z,12.05
2016-12-12T11:56:04.791Z,12.07
2016-12-12T11:57:15.143Z,12.03
2016-12-12T11:58:25.167Z,11.91
2016-12-12T11:59:35.497Z,11.86
2016-12-12T12:00:45.880Z,11.81
2016-12-12T12:01:56.209Z,11.81
2016-12-12T12:03:06.234Z,11.71
2016-12-12T12:04:16.261Z,11.67
2016-12-12T12:05:26.608Z,11.71
2016-12-12T12:06:36.625Z,11.73
2016-12-12T12:07:46.993Z,11.79
2016-12-12T12:08:57.013Z,11.81
2016-12-12T12:10:07.030Z,11.82
2016-12-12T12:11:17.071Z,11.86
2016-12-12T12:12:27.404Z,12
2016-12-12T12:13:37.734Z,12.01
2016-12-12T12:14:47.447Z,12.1
2016-12-12T12:15:57.469Z,12.13
2016-12-12T12:17:07.864Z,12.15
2016-12-12T12:18:17.581Z,12.13
2016-12-12T12:19:27.925Z,12.18
2016-12-12T12:20:38.275Z,12.19
2016-12-12T12:21:48.631Z,12.31
2016-12-12T12:22:58.695Z,12.31
2016-12-12T12:24:08.090Z,12.45
2016-12-12T12:25:18.447Z,12.41
2016-12-12T12:26:28.767Z,12.55
2016-12-12T12:27:39.095Z,12.61
2016-12-12T12:28:48.807Z,12.73
2016-12-12T12:29:59.159Z,12.77
2016-12-12T12:31:09.181Z,12.84
2016-12-12T12:32:19.516Z,12.74
2016-12-12T12:33:29.867Z,12.7
2016-12-12T12:34:40.214Z,12.78
2016-12-12T12:35:50.567Z,12.86
2016-12-12T12:37:00.893Z,12.88
2016-12-12T12:38:10.614Z,12.84
2016-12-12T12:39:20.633Z,12.92
2016-12-12T12:40:30.954Z,12.88
2016-12-12T12:41:41.274Z,12.86
2016-12-12T12:42:50.976Z,12.76
2016-12-12T12:44:01.313Z,12.55
2016-12-12T12:45:11.339Z,12.52
2016-12-12T12:46:21.053Z,12.53
2016-12-12T12:47:31.383Z,12.61
2016-12-12T12:48:41.404Z,12.76
2016-12-12T12:49:51.435Z,12.76
2016-12-12T12:51:01.809Z,12.78
2016-12-12T12:52:11.893Z,12.86
2016-12-12T12:53:21.622Z,12.81
2016-12-12T12:54:31.955Z,12.8
2016-12-12T12:55:41.995Z,12.61
2016-12-12T12:56:52.024Z,12.55
2016-12-12T12:58:02.357Z,12.58
2016-12-12T12:59:11.775Z,12.56
2016-12-12T13:00:22.112Z,12.63
2016-12-12T13:01:31.822Z,12.56
2016-12-12T13:02:42.146Z,12.62
2016-12-12T13:03:52.166Z,12.7
2016-12-12T13:05:02.499Z,12.7
2016-12-12T13:06:12.524Z,12.8
2016-12-12T13:07:22.859Z,12.96
2016-12-12T13:08:32.907Z,12.91
2016-12-12T13:09:42.615Z,12.81
2016-12-12T13:10:52.999Z,12.89
2016-12-12T13:12:03.029Z,12.83
2016-12-12T13:13:13.049Z,12.81
2016-12-12T13:14:23.386Z,12.7
2016-12-12T13:15:33.718Z,12.61
2016-12-12T13:16:44.064Z,12.62
2016-12-12T13:17:54.088Z,12.53
2016-12-12T13:19:04.442Z,12.44
2016-12-12T13:20:14.469Z,12.45
2016-12-12T13:21:24.491Z,12.55
2016-12-12T13:22:34.838Z,12.77
2016-12-12T13:23:44.864Z,12.78
2016-12-12T13:24:54.581Z,12.92
2016-12-12T13:26:04.624Z,12.86
2016-12-12T13:27:14.951Z,12.91
2016-12-12T13:28:25.272Z,12.92
2016-12-12T13:29:35.599Z,12.76
2016-12-12T13:30:45.652Z,12.88
2016-12-12T13:31:55.685Z,13.09
2016-12-12T13:33:05.392Z,13.25
2016-12-12T13:34:15.716Z,13.4
2016-12-12T13:35:26.065Z,13.54
2016-12-12T13:36:36.092Z,13.6
2016-12-12T13:37:46.119Z,13.58
2016-12-12T13:38:56.461Z,13.69
2016-12-12T13:40:06.793Z,13.7
2016-12-12T13:41:16.812Z,13.65
2016-12-12T13:42:26.832Z,13.62
2016-12-12T13:43:37.180Z,13.53
2016-12-12T13:44:47.209Z,13.47
2016-12-12T13:45:57.526Z,13.29
2016-12-12T13:47:07.873Z,13.16
2016-12-12T13:48:17.886Z,13.27
2016-12-12T13:49:27.922Z,13.37
2016-12-12T13:50:37.628Z,13.42
2016-12-12T13:51:47.686Z,13.44
2016-12-12T13:52:57.758Z,13.35
2016-12-12T13:54:07.787Z,13.2
2016-12-12T13:55:18.130Z,12.98
2016-12-12T13:56:28.465Z,12.88
2016-12-12T13:57:37.864Z,12.8
2016-12-12T13:58:47.892Z,12.84
2016-12-12T13:59:58.227Z,12.81
2016-12-12T14:01:07.619Z,12.65
2016-12-12T14:02:17.984Z,12.53
2016-12-12T14:03:28.061Z,12.43
2016-12-12T14:04:39.407Z,12.43
2016-12-12T14:05:49.963Z,12.34
2016-12-12T14:07:00.410Z,12.23
2016-12-12T14:08:10.552Z,12.15
2016-12-12T14:09:20.384Z,12.1
2016-12-12T14:10:30.763Z,12.16
2016-12-12T14:11:40.813Z,12.1
2016-12-12T14:12:51.282Z,12.05
2016-12-12T14:14:01.821Z,11.86
2016-12-12T14:15:12.323Z,11.86
2016-12-12T14:16:22.400Z,11.79
2016-12-12T14:17:32.784Z,11.73
2016-12-12T14:18:43.136Z,11.57
2016-12-12T14:19:53.496Z,11.57
2016-12-12T14:21:03.534Z,11.59
2016-12-12T14:22:13.604Z,11.59
2016-12-12T14:23:23.961Z,11.56
2016-12-12T14:24:34.051Z,11.49
2016-12-12T14:25:44.435Z,11.49
2016-12-12T14:26:54.801Z,11.46
2016-12-12T14:28:05.138Z,11.49
2016-12-12T14:29:15.211Z,11.43
2016-12-12T14:30:25.245Z,11.39
2016-12-12T14:31:35.680Z,11.33
2016-12-12T14:32:45.417Z,11.34
2016-12-12T14:33:55.457Z,11.31
2016-12-12T14:35:05.913Z,11.38
2016-12-12T14:36:16.023Z,11.34
2016-12-12T14:37:26.101Z,11.3
2016-12-12T14:38:36.478Z,11.28
2016-12-12T14:39:46.523Z,11.16
2016-12-12T14:40:56.244Z,11.16
2016-12-12T14:42:06.312Z,11.09
2016-12-12T14:43:16.039Z,11.03
2016-12-12T14:44:26.076Z,11.03
2016-12-12T14:45:36.106Z,10.98
2016-12-12T14:46:46.450Z,11.02
2016-12-12T14:47:56.485Z,10.84
2016-12-12T14:49:06.826Z,10.87
2016-12-12T14:50:16.911Z,10.91
2016-12-12T14:51:26.959Z,10.83
2016-12-12T14:52:37.367Z,10.77
2016-12-12T14:53:47.954Z,10.8
2016-12-12T14:54:57.970Z,10.75
2016-12-12T14:56:08.349Z,10.66
2016-12-12T14:57:18.376Z,10.66
2016-12-12T14:58:28.417Z,10.66
2016-12-12T14:59:38.497Z,10.66
2016-12-12T15:00:48.835Z,10.55
2016-12-12T15:01:58.916Z,10.55
2016-12-12T15:03:08.973Z,10.55
2016-12-12T15:04:19.028Z,10.42
2016-12-12T15:05:29.050Z,10.47
2016-12-12T15:06:39.396Z,10.38
2016-12-12T15:07:49.743Z,10.41
2016-12-12T15:09:00.080Z,10.35
2016-12-12T15:10:10.117Z,10.41
2016-12-12T15:11:19.826Z,10.35
2016-12-12T15:12:29.555Z,10.25
2016-12-12T15:13:39.981Z,10.26
2016-12-12T15:14:50.351Z,10.29
2016-12-12T15:16:00.710Z,10.31
2016-12-12T15:17:10.737Z,10.29
2016-12-12T15:18:20.477Z,10.21
2016-12-12T15:19:30.547Z,10.32
2016-12-12T15:20:40.641Z,10.26
2016-12-12T15:21:50.998Z,10.2
2016-12-12T15:23:01.347Z,10.29
2016-12-12T15:24:11.677Z,10.26
2016-12-12T15:25:21.737Z,10.29
2016-12-12T15:26:32.083Z,10.33
2016-12-12T15:27:42.417Z,10.26
2016-12-12T15:28:52.742Z,10.39
2016-12-12T15:30:03.087Z,10.38
2016-12-12T15:31:13.416Z,10.33
2016-12-12T15:32:23.751Z,10.42
2016-12-12T15:33:34.095Z,10.38
2016-12-12T15:34:44.117Z,10.44
2016-12-12T15:35:54.458Z,10.49
2016-12-12T15:37:04.497Z,10.51
2016-12-12T15:38:14.831Z,10.54
2016-12-12T15:39:24.853Z,10.55
2016-12-12T15:40:34.256Z,10.52
2016-12-12T15:41:44.587Z,10.51
2016-12-12T15:42:54.340Z,10.61